sensor_id;sensor_type;location;lat;lon;timestamp;temperature;humidity
21895;DHT22;11112;51.270;7.224;2023-02-24T00:02:13;9.90;99.90
21895;DHT22;11112;51.270;7.224;2023-02-24T00:04:44;9.90;99.90
21895;DHT22;11112;51.270;7.224;2023-02-24T00:07:16;9.90;99.90
21895;DHT22;11112;51.270;7.224;2023-02-24T00:09:44;9.90;99.90
21895;DHT22;11112;51.270;7.224;2023-02-24T00:12:15;10.00;99.90
21895;DHT22;11112;51.270;7.224;2023-02-24T00:14:45;10.00;99.90
21895;DHT22;11112;51.270;7.224;2023-02-24T00:17:14;10.00;99.90
21895;DHT22;11112;51.270;7.224;2023-02-24T00:19:43;10.00;99.90
21895;DHT22;11112;51.270;7.224;2023-02-24T00:22:11;10.00;99.90
21895;DHT22;11112;51.270;7.224;2023-02-24T00:24:39;10.00;99.90
21895;DHT22;11112;51.270;7.224;2023-02-24T00:27:07;10.00;99.90
21895;DHT22;11112;51.270;7.224;2023-02-24T00:29:38;10.00;99.90
21895;DHT22;11112;51.270;7.224;2023-02-24T00:32:07;10.00;99.90
21895;DHT22;11112;51.270;7.224;2023-02-24T00:34:39;9.90;99.90
21895;DHT22;11112;51.270;7.224;2023-02-24T00:37:09;9.90;99.90
21895;DHT22;11112;51.270;7.224;2023-02-24T00:39:37;9.90;99.90
21895;DHT22;11112;51.270;7.224;2023-02-24T00:42:06;9.90;99.90
21895;DHT22;11112;51.270;7.224;2023-02-24T00:44:35;9.80;99.90
21895;DHT22;11112;51.270;7.224;2023-02-24T00:47:10;9.60;99.90
21895;DHT22;11112;51.270;7.224;2023-02-24T00:49:41;9.50;99.90
21895;DHT22;11112;51.270;7.224;2023-02-24T00:52:11;9.50;99.90
21895;DHT22;11112;51.270;7.224;2023-02-24T00:54:41;9.50;99.90
21895;DHT22;11112;51.270;7.224;2023-02-24T00:57:10;9.60;99.90
21895;DHT22;11112;51.270;7.224;2023-02-24T00:59:40;9.60;99.90
21895;DHT22;11112;51.270;7.224;2023-02-24T01:02:12;9.60;99.90
21895;DHT22;11112;51.270;7.224;2023-02-24T01:04:41;9.70;99.90
21895;DHT22;11112;51.270;7.224;2023-02-24T01:07:10;9.70;99.90
21895;DHT22;11112;51.270;7.224;2023-02-24T01:09:39;9.70;99.90
21895;DHT22;11112;51.270;7.224;2023-02-24T01:12:11;9.60;99.90
21895;DHT22;11112;51.270;7.224;2023-02-24T01:14:58;9.60;99.90
21895;DHT22;11112;51.270;7.224;2023-02-24T01:17:28;9.70;99.90
21895;DHT22;11112;51.270;7.224;2023-02-24T01:19:57;9.60;99.90
21895;DHT22;11112;51.270;7.224;2023-02-24T01:22:25;9.50;99.90
21895;DHT22;11112;51.270;7.224;2023-02-24T01:24:53;9.60;99.90
21895;DHT22;11112;51.270;7.224;2023-02-24T01:27:20;9.60;99.90
21895;DHT22;11112;51.270;7.224;2023-02-24T01:29:49;9.50;99.90
21895;DHT22;11112;51.270;7.224;2023-02-24T01:32:20;9.50;99.90
21895;DHT22;11112;51.270;7.224;2023-02-24T01:34:51;9.40;99.90
21895;DHT22;11112;51.270;7.224;2023-02-24T01:37:19;9.40;99.90
21895;DHT22;11112;51.270;7.224;2023-02-24T01:39:47;9.40;99.90
21895;DHT22;11112;51.270;7.224;2023-02-24T01:42:16;9.50;99.90
21895;DHT22;11112;51.270;7.224;2023-02-24T01:45:20;9.40;99.90
21895;DHT22;11112;51.270;7.224;2023-02-24T01:47:52;9.50;99.90
21895;DHT22;11112;51.270;7.224;2023-02-24T01:50:24;9.60;99.90
21895;DHT22;11112;51.270;7.224;2023-02-24T01:52:56;9.50;99.90
21895;DHT22;11112;51.270;7.224;2023-02-24T01:55:28;9.50;99.90
21895;DHT22;11112;51.270;7.224;2023-02-24T01:58:14;9.50;99.90
21895;DHT22;11112;51.270;7.224;2023-02-24T02:00:45;9.50;99.90
21895;DHT22;11112;51.270;7.224;2023-02-24T02:03:25;9.50;99.90
21895;DHT22;11112;51.270;7.224;2023-02-24T02:05:59;9.60;99.90
21895;DHT22;11112;51.270;7.224;2023-02-24T02:08:28;9.60;99.90
21895;DHT22;11112;51.270;7.224;2023-02-24T02:10:59;9.50;99.90
21895;DHT22;11112;51.270;7.224;2023-02-24T02:13:31;9.40;99.90
21895;DHT22;11112;51.270;7.224;2023-02-24T02:22:28;9.30;99.90
21895;DHT22;11112;51.270;7.224;2023-02-24T02:25:10;9.30;99.90
21895;DHT22;11112;51.270;7.224;2023-02-24T02:28:08;9.40;99.90
21895;DHT22;11112;51.270;7.224;2023-02-24T02:31:26;9.40;99.90
21895;DHT22;11112;51.270;7.224;2023-02-24T02:34:18;9.30;99.90
21895;DHT22;11112;51.270;7.224;2023-02-24T02:36:57;9.30;99.90
21895;DHT22;11112;51.270;7.224;2023-02-24T02:39:40;9.30;99.90
21895;DHT22;11112;51.270;7.224;2023-02-24T02:42:20;9.30;99.90
21895;DHT22;11112;51.270;7.224;2023-02-24T02:44:57;9.40;99.90
21895;DHT22;11112;51.270;7.224;2023-02-24T02:47:34;9.40;99.90
21895;DHT22;11112;51.270;7.224;2023-02-24T02:50:14;9.40;99.60
21895;DHT22;11112;51.270;7.224;2023-02-24T02:52:50;9.40;99.10
21895;DHT22;11112;51.270;7.224;2023-02-24T02:55:25;9.30;99.10
21895;DHT22;11112;51.270;7.224;2023-02-24T02:57:58;9.30;99.30
21895;DHT22;11112;51.270;7.224;2023-02-24T03:00:30;9.30;99.10
21895;DHT22;11112;51.270;7.224;2023-02-24T03:03:04;9.30;99.20
21895;DHT22;11112;51.270;7.224;2023-02-24T03:05:42;9.30;99.10
21895;DHT22;11112;51.270;7.224;2023-02-24T03:08:14;9.30;99.10
21895;DHT22;11112;51.270;7.224;2023-02-24T03:10:46;9.30;98.90
21895;DHT22;11112;51.270;7.224;2023-02-24T03:13:17;9.30;98.80
21895;DHT22;11112;51.270;7.224;2023-02-24T03:15:48;9.30;98.70
21895;DHT22;11112;51.270;7.224;2023-02-24T03:18:20;9.30;98.30
21895;DHT22;11112;51.270;7.224;2023-02-24T03:20:58;9.30;98.30
21895;DHT22;11112;51.270;7.224;2023-02-24T03:23:35;9.30;98.40
21895;DHT22;11112;51.270;7.224;2023-02-24T03:26:10;9.30;98.60
21895;DHT22;11112;51.270;7.224;2023-02-24T03:28:51;9.20;98.30
21895;DHT22;11112;51.270;7.224;2023-02-24T03:31:27;9.20;98.60
21895;DHT22;11112;51.270;7.224;2023-02-24T03:34:01;9.20;98.60
21895;DHT22;11112;51.270;7.224;2023-02-24T03:36:32;9.20;98.60
21895;DHT22;11112;51.270;7.224;2023-02-24T03:39:00;9.20;98.60
21895;DHT22;11112;51.270;7.224;2023-02-24T03:41:34;9.30;98.60
21895;DHT22;11112;51.270;7.224;2023-02-24T03:44:06;9.20;98.40
21895;DHT22;11112;51.270;7.224;2023-02-24T03:46:36;9.20;98.40
21895;DHT22;11112;51.270;7.224;2023-02-24T03:49:09;9.20;98.50
21895;DHT22;11112;51.270;7.224;2023-02-24T03:51:40;9.20;98.50
21895;DHT22;11112;51.270;7.224;2023-02-24T03:54:19;9.20;98.50
21895;DHT22;11112;51.270;7.224;2023-02-24T03:57:07;9.20;98.20
21895;DHT22;11112;51.270;7.224;2023-02-24T03:59:46;9.10;97.60
21895;DHT22;11112;51.270;7.224;2023-02-24T04:02:21;9.10;98.20
21895;DHT22;11112;51.270;7.224;2023-02-24T04:04:55;9.10;97.90
21895;DHT22;11112;51.270;7.224;2023-02-24T04:07:34;9.10;98.00
21895;DHT22;11112;51.270;7.224;2023-02-24T04:10:08;9.20;98.30
21895;DHT22;11112;51.270;7.224;2023-02-24T04:12:44;9.20;98.20
21895;DHT22;11112;51.270;7.224;2023-02-24T04:15:21;9.20;98.30
21895;DHT22;11112;51.270;7.224;2023-02-24T04:17:56;9.20;98.30
21895;DHT22;11112;51.270;7.224;2023-02-24T04:20:29;9.20;98.30
21895;DHT22;11112;51.270;7.224;2023-02-24T04:23:05;9.20;98.30
21895;DHT22;11112;51.270;7.224;2023-02-24T04:25:35;9.20;98.10
21895;DHT22;11112;51.270;7.224;2023-02-24T04:28:04;9.20;97.80
21895;DHT22;11112;51.270;7.224;2023-02-24T04:30:35;9.20;97.60
21895;DHT22;11112;51.270;7.224;2023-02-24T04:33:04;9.20;97.70
21895;DHT22;11112;51.270;7.224;2023-02-24T04:35:35;9.20;97.60
21895;DHT22;11112;51.270;7.224;2023-02-24T04:38:07;9.20;97.70
21895;DHT22;11112;51.270;7.224;2023-02-24T04:40:36;9.20;97.50
21895;DHT22;11112;51.270;7.224;2023-02-24T04:43:05;9.10;97.60
21895;DHT22;11112;51.270;7.224;2023-02-24T04:45:33;9.10;97.40
21895;DHT22;11112;51.270;7.224;2023-02-24T04:48:05;9.10;97.20
21895;DHT22;11112;51.270;7.224;2023-02-24T04:50:38;9.10;97.30
21895;DHT22;11112;51.270;7.224;2023-02-24T04:53:10;9.10;97.20
21895;DHT22;11112;51.270;7.224;2023-02-24T04:55:40;9.10;96.90
21895;DHT22;11112;51.270;7.224;2023-02-24T04:58:10;9.10;96.80
21895;DHT22;11112;51.270;7.224;2023-02-24T05:00:39;9.10;96.70
21895;DHT22;11112;51.270;7.224;2023-02-24T05:03:14;9.10;96.20
21895;DHT22;11112;51.270;7.224;2023-02-24T05:05:50;9.00;96.30
21895;DHT22;11112;51.270;7.224;2023-02-24T05:08:23;9.00;96.00
21895;DHT22;11112;51.270;7.224;2023-02-24T05:10:52;9.00;96.40
21895;DHT22;11112;51.270;7.224;2023-02-24T05:13:26;9.00;96.60
21895;DHT22;11112;51.270;7.224;2023-02-24T05:15:57;9.10;96.40
21895;DHT22;11112;51.270;7.224;2023-02-24T05:18:26;9.10;96.30
21895;DHT22;11112;51.270;7.224;2023-02-24T05:20:56;9.10;96.10
21895;DHT22;11112;51.270;7.224;2023-02-24T05:23:44;9.10;95.60
21895;DHT22;11112;51.270;7.224;2023-02-24T05:26:13;9.10;95.50
21895;DHT22;11112;51.270;7.224;2023-02-24T05:28:43;9.10;95.60
21895;DHT22;11112;51.270;7.224;2023-02-24T05:31:17;9.10;95.40
21895;DHT22;11112;51.270;7.224;2023-02-24T05:33:48;9.00;95.30
21895;DHT22;11112;51.270;7.224;2023-02-24T05:36:23;9.00;95.50
21895;DHT22;11112;51.270;7.224;2023-02-24T05:38:55;9.00;95.50
21895;DHT22;11112;51.270;7.224;2023-02-24T05:41:25;9.00;95.50
21895;DHT22;11112;51.270;7.224;2023-02-24T05:44:00;9.00;95.60
21895;DHT22;11112;51.270;7.224;2023-02-24T05:46:31;9.00;95.30
21895;DHT22;11112;51.270;7.224;2023-02-24T05:49:02;9.00;95.50
21895;DHT22;11112;51.270;7.224;2023-02-24T05:51:33;9.00;95.30
21895;DHT22;11112;51.270;7.224;2023-02-24T05:54:04;9.10;95.70
21895;DHT22;11112;51.270;7.224;2023-02-24T05:56:33;9.10;95.20
21895;DHT22;11112;51.270;7.224;2023-02-24T05:59:05;9.00;95.20
21895;DHT22;11112;51.270;7.224;2023-02-24T06:01:36;9.00;95.10
21895;DHT22;11112;51.270;7.224;2023-02-24T06:04:06;9.00;94.90
21895;DHT22;11112;51.270;7.224;2023-02-24T06:06:35;9.00;95.10
21895;DHT22;11112;51.270;7.224;2023-02-24T06:09:07;9.10;95.20
21895;DHT22;11112;51.270;7.224;2023-02-24T06:11:37;9.10;95.30
21895;DHT22;11112;51.270;7.224;2023-02-24T06:14:05;9.00;95.50
21895;DHT22;11112;51.270;7.224;2023-02-24T06:16:34;9.10;95.60
21895;DHT22;11112;51.270;7.224;2023-02-24T06:19:02;9.10;95.60
21895;DHT22;11112;51.270;7.224;2023-02-24T06:21:31;9.00;95.40
21895;DHT22;11112;51.270;7.224;2023-02-24T06:24:00;9.10;95.60
21895;DHT22;11112;51.270;7.224;2023-02-24T06:26:30;9.00;95.40
21895;DHT22;11112;51.270;7.224;2023-02-24T06:29:01;9.00;95.00
21895;DHT22;11112;51.270;7.224;2023-02-24T06:31:30;9.00;95.30
21895;DHT22;11112;51.270;7.224;2023-02-24T06:33:58;9.00;95.50
21895;DHT22;11112;51.270;7.224;2023-02-24T06:36:26;9.00;96.00
21895;DHT22;11112;51.270;7.224;2023-02-24T06:38:53;9.00;96.00
21895;DHT22;11112;51.270;7.224;2023-02-24T06:41:21;9.00;95.90
21895;DHT22;11112;51.270;7.224;2023-02-24T06:43:50;9.00;95.80
21895;DHT22;11112;51.270;7.224;2023-02-24T06:46:18;9.00;95.80
21895;DHT22;11112;51.270;7.224;2023-02-24T06:48:45;9.00;95.90
21895;DHT22;11112;51.270;7.224;2023-02-24T06:51:14;9.00;95.90
21895;DHT22;11112;51.270;7.224;2023-02-24T06:53:42;9.00;96.10
21895;DHT22;11112;51.270;7.224;2023-02-24T06:56:10;9.00;96.00
21895;DHT22;11112;51.270;7.224;2023-02-24T06:58:41;9.00;96.10
21895;DHT22;11112;51.270;7.224;2023-02-24T07:01:12;9.00;96.20
21895;DHT22;11112;51.270;7.224;2023-02-24T07:03:40;9.00;96.40
21895;DHT22;11112;51.270;7.224;2023-02-24T07:06:12;9.00;96.60
21895;DHT22;11112;51.270;7.224;2023-02-24T07:08:48;9.00;96.60
21895;DHT22;11112;51.270;7.224;2023-02-24T07:11:17;9.00;96.30
21895;DHT22;11112;51.270;7.224;2023-02-24T07:13:45;9.00;96.10
21895;DHT22;11112;51.270;7.224;2023-02-24T07:16:15;9.00;95.90
21895;DHT22;11112;51.270;7.224;2023-02-24T07:18:44;8.90;95.60
21895;DHT22;11112;51.270;7.224;2023-02-24T07:21:14;8.90;95.30
21895;DHT22;11112;51.270;7.224;2023-02-24T07:23:45;8.90;95.60
21895;DHT22;11112;51.270;7.224;2023-02-24T07:26:15;8.90;95.70
21895;DHT22;11112;51.270;7.224;2023-02-24T07:28:45;8.90;95.50
21895;DHT22;11112;51.270;7.224;2023-02-24T07:31:17;8.90;95.80
21895;DHT22;11112;51.270;7.224;2023-02-24T07:33:47;9.00;95.90
21895;DHT22;11112;51.270;7.224;2023-02-24T07:36:16;9.00;96.20
21895;DHT22;11112;51.270;7.224;2023-02-24T07:38:48;9.00;96.00
21895;DHT22;11112;51.270;7.224;2023-02-24T07:41:19;9.00;95.90
21895;DHT22;11112;51.270;7.224;2023-02-24T07:43:50;9.00;95.90
21895;DHT22;11112;51.270;7.224;2023-02-24T07:46:20;8.90;95.70
21895;DHT22;11112;51.270;7.224;2023-02-24T07:48:54;8.90;95.70
21895;DHT22;11112;51.270;7.224;2023-02-24T07:51:27;8.90;95.80
21895;DHT22;11112;51.270;7.224;2023-02-24T07:53:55;8.90;95.80
21895;DHT22;11112;51.270;7.224;2023-02-24T07:56:25;8.90;95.60
21895;DHT22;11112;51.270;7.224;2023-02-24T07:58:57;8.90;95.70
21895;DHT22;11112;51.270;7.224;2023-02-24T08:01:28;8.90;95.70
21895;DHT22;11112;51.270;7.224;2023-02-24T08:04:04;8.90;95.50
21895;DHT22;11112;51.270;7.224;2023-02-24T08:06:35;8.80;95.50
21895;DHT22;11112;51.270;7.224;2023-02-24T08:09:12;8.90;95.50
21895;DHT22;11112;51.270;7.224;2023-02-24T08:11:45;8.80;95.50
21895;DHT22;11112;51.270;7.224;2023-02-24T08:14:16;8.80;95.40
21895;DHT22;11112;51.270;7.224;2023-02-24T08:16:47;8.80;95.30
21895;DHT22;11112;51.270;7.224;2023-02-24T08:19:17;8.80;95.30
21895;DHT22;11112;51.270;7.224;2023-02-24T08:21:47;8.80;95.30
21895;DHT22;11112;51.270;7.224;2023-02-24T08:24:17;8.80;95.30
21895;DHT22;11112;51.270;7.224;2023-02-24T08:26:47;8.70;95.40
21895;DHT22;11112;51.270;7.224;2023-02-24T08:29:28;8.70;95.20
21895;DHT22;11112;51.270;7.224;2023-02-24T08:31:57;8.80;95.50
21895;DHT22;11112;51.270;7.224;2023-02-24T08:34:25;8.70;95.60
21895;DHT22;11112;51.270;7.224;2023-02-24T08:36:56;8.80;95.60
21895;DHT22;11112;51.270;7.224;2023-02-24T08:39:25;8.80;95.80
21895;DHT22;11112;51.270;7.224;2023-02-24T08:41:55;8.80;95.90
21895;DHT22;11112;51.270;7.224;2023-02-24T08:44:23;8.80;95.80
21895;DHT22;11112;51.270;7.224;2023-02-24T08:46:52;8.80;95.80
21895;DHT22;11112;51.270;7.224;2023-02-24T08:49:22;8.80;95.50
21895;DHT22;11112;51.270;7.224;2023-02-24T08:51:51;8.80;95.40
21895;DHT22;11112;51.270;7.224;2023-02-24T08:54:20;8.80;95.40
21895;DHT22;11112;51.270;7.224;2023-02-24T08:56:58;8.70;95.40
21895;DHT22;11112;51.270;7.224;2023-02-24T08:59:34;8.70;95.50
21895;DHT22;11112;51.270;7.224;2023-02-24T09:02:14;8.70;95.70
21895;DHT22;11112;51.270;7.224;2023-02-24T09:04:51;8.80;95.70
21895;DHT22;11112;51.270;7.224;2023-02-24T09:07:22;8.80;95.80
21895;DHT22;11112;51.270;7.224;2023-02-24T09:09:51;8.80;95.90
21895;DHT22;11112;51.270;7.224;2023-02-24T09:12:21;8.80;95.80
21895;DHT22;11112;51.270;7.224;2023-02-24T09:14:52;8.80;95.80
21895;DHT22;11112;51.270;7.224;2023-02-24T09:17:25;8.80;95.60
21895;DHT22;11112;51.270;7.224;2023-02-24T09:20:17;8.80;95.40
21895;DHT22;11112;51.270;7.224;2023-02-24T09:23:21;8.70;95.50
21895;DHT22;11112;51.270;7.224;2023-02-24T09:25:54;8.70;95.40
21895;DHT22;11112;51.270;7.224;2023-02-24T09:28:23;8.70;95.50
21895;DHT22;11112;51.270;7.224;2023-02-24T09:30:53;8.80;95.30
21895;DHT22;11112;51.270;7.224;2023-02-24T09:33:24;8.70;95.10
21895;DHT22;11112;51.270;7.224;2023-02-24T09:35:56;8.70;95.30
21895;DHT22;11112;51.270;7.224;2023-02-24T09:38:34;8.70;95.00
21895;DHT22;11112;51.270;7.224;2023-02-24T09:41:27;8.70;95.00
21895;DHT22;11112;51.270;7.224;2023-02-24T09:44:23;8.70;94.90
21895;DHT22;11112;51.270;7.224;2023-02-24T09:46:56;8.70;95.10
21895;DHT22;11112;51.270;7.224;2023-02-24T09:49:41;8.70;95.10
21895;DHT22;11112;51.270;7.224;2023-02-24T09:52:15;8.70;95.00
21895;DHT22;11112;51.270;7.224;2023-02-24T09:54:46;8.60;95.00
21895;DHT22;11112;51.270;7.224;2023-02-24T09:57:39;8.60;95.10
21895;DHT22;11112;51.270;7.224;2023-02-24T10:00:36;8.60;94.90
21895;DHT22;11112;51.270;7.224;2023-02-24T10:03:13;8.60;95.40
21895;DHT22;11112;51.270;7.224;2023-02-24T10:06:13;8.60;95.00
21895;DHT22;11112;51.270;7.224;2023-02-24T10:08:49;8.60;94.90
21895;DHT22;11112;51.270;7.224;2023-02-24T10:11:20;8.60;94.80
21895;DHT22;11112;51.270;7.224;2023-02-24T10:14:00;8.60;94.80
21895;DHT22;11112;51.270;7.224;2023-02-24T10:16:32;8.60;94.50
21895;DHT22;11112;51.270;7.224;2023-02-24T10:19:17;8.50;94.50
21895;DHT22;11112;51.270;7.224;2023-02-24T10:21:53;8.40;94.50
21895;DHT22;11112;51.270;7.224;2023-02-24T10:24:33;8.50;94.40
21895;DHT22;11112;51.270;7.224;2023-02-24T10:27:09;8.50;94.30
21895;DHT22;11112;51.270;7.224;2023-02-24T10:29:53;8.60;94.40
21895;DHT22;11112;51.270;7.224;2023-02-24T10:32:35;8.60;94.50
21895;DHT22;11112;51.270;7.224;2023-02-24T10:35:12;8.60;93.80
21895;DHT22;11112;51.270;7.224;2023-02-24T10:37:42;8.60;94.10
21895;DHT22;11112;51.270;7.224;2023-02-24T10:40:13;8.60;94.10
21895;DHT22;11112;51.270;7.224;2023-02-24T10:43:01;8.60;94.10
21895;DHT22;11112;51.270;7.224;2023-02-24T10:45:36;8.60;94.30
21895;DHT22;11112;51.270;7.224;2023-02-24T10:48:18;8.60;94.20
21895;DHT22;11112;51.270;7.224;2023-02-24T10:50:51;8.60;94.30
21895;DHT22;11112;51.270;7.224;2023-02-24T10:53:23;8.60;94.50
21895;DHT22;11112;51.270;7.224;2023-02-24T10:56:02;8.60;94.40
21895;DHT22;11112;51.270;7.224;2023-02-24T10:58:58;8.60;94.30
21895;DHT22;11112;51.270;7.224;2023-02-24T11:01:50;8.50;94.50
21895;DHT22;11112;51.270;7.224;2023-02-24T11:04:32;8.50;94.90
21895;DHT22;11112;51.270;7.224;2023-02-24T11:07:28;8.50;95.20
21895;DHT22;11112;51.270;7.224;2023-02-24T11:10:12;8.60;95.70
21895;DHT22;11112;51.270;7.224;2023-02-24T11:12:53;8.60;95.50
21895;DHT22;11112;51.270;7.224;2023-02-24T11:15:42;8.60;95.70
21895;DHT22;11112;51.270;7.224;2023-02-24T11:18:30;8.60;95.90
21895;DHT22;11112;51.270;7.224;2023-02-24T11:20:59;8.50;96.00
21895;DHT22;11112;51.270;7.224;2023-02-24T11:23:31;8.50;96.40
21895;DHT22;11112;51.270;7.224;2023-02-24T11:26:02;8.50;96.60
21895;DHT22;11112;51.270;7.224;2023-02-24T11:28:45;8.50;96.60
21895;DHT22;11112;51.270;7.224;2023-02-24T11:31:31;8.50;96.90
21895;DHT22;11112;51.270;7.224;2023-02-24T11:34:08;8.40;96.90
21895;DHT22;11112;51.270;7.224;2023-02-24T11:36:42;8.40;97.10
21895;DHT22;11112;51.270;7.224;2023-02-24T11:39:33;8.40;97.30
21895;DHT22;11112;51.270;7.224;2023-02-24T11:42:15;8.40;97.70
21895;DHT22;11112;51.270;7.224;2023-02-24T11:44:51;8.40;97.80
21895;DHT22;11112;51.270;7.224;2023-02-24T11:47:28;8.40;97.90
21895;DHT22;11112;51.270;7.224;2023-02-24T11:50:13;8.50;98.20
21895;DHT22;11112;51.270;7.224;2023-02-24T11:52:48;8.50;98.00
21895;DHT22;11112;51.270;7.224;2023-02-24T11:55:25;8.40;98.10
21895;DHT22;11112;51.270;7.224;2023-02-24T11:57:57;8.40;98.20
21895;DHT22;11112;51.270;7.224;2023-02-24T12:00:30;8.40;98.30
21895;DHT22;11112;51.270;7.224;2023-02-24T12:03:05;8.30;98.30
21895;DHT22;11112;51.270;7.224;2023-02-24T12:05:41;8.30;98.60
21895;DHT22;11112;51.270;7.224;2023-02-24T12:08:15;8.30;98.80
21895;DHT22;11112;51.270;7.224;2023-02-24T12:10:55;8.30;98.80
21895;DHT22;11112;51.270;7.224;2023-02-24T12:13:31;8.30;98.90
21895;DHT22;11112;51.270;7.224;2023-02-24T12:16:09;8.30;99.00
21895;DHT22;11112;51.270;7.224;2023-02-24T12:18:44;8.30;99.00
21895;DHT22;11112;51.270;7.224;2023-02-24T12:21:17;8.30;99.00
21895;DHT22;11112;51.270;7.224;2023-02-24T12:23:50;8.30;99.10
21895;DHT22;11112;51.270;7.224;2023-02-24T12:26:21;8.20;99.20
21895;DHT22;11112;51.270;7.224;2023-02-24T12:29:21;8.30;99.20
21895;DHT22;11112;51.270;7.224;2023-02-24T12:32:06;8.20;99.10
21895;DHT22;11112;51.270;7.224;2023-02-24T12:34:47;8.20;99.10
21895;DHT22;11112;51.270;7.224;2023-02-24T12:37:30;8.20;99.40
21895;DHT22;11112;51.270;7.224;2023-02-24T12:40:14;8.20;99.80
21895;DHT22;11112;51.270;7.224;2023-02-24T12:42:53;8.20;99.60
21895;DHT22;11112;51.270;7.224;2023-02-24T12:45:29;8.30;99.90
21895;DHT22;11112;51.270;7.224;2023-02-24T12:48:05;8.20;99.70
21895;DHT22;11112;51.270;7.224;2023-02-24T12:50:45;8.30;99.60
21895;DHT22;11112;51.270;7.224;2023-02-24T12:53:20;8.20;99.70
21895;DHT22;11112;51.270;7.224;2023-02-24T12:55:57;8.20;99.80
21895;DHT22;11112;51.270;7.224;2023-02-24T12:58:33;8.20;99.70
21895;DHT22;11112;51.270;7.224;2023-02-24T13:01:10;8.20;99.80
21895;DHT22;11112;51.270;7.224;2023-02-24T13:03:57;8.20;99.90
21895;DHT22;11112;51.270;7.224;2023-02-24T13:06:40;8.20;99.60
21895;DHT22;11112;51.270;7.224;2023-02-24T13:09:21;8.20;99.80
21895;DHT22;11112;51.270;7.224;2023-02-24T13:11:54;8.20;99.80
21895;DHT22;11112;51.270;7.224;2023-02-24T13:14:26;8.20;99.90
21895;DHT22;11112;51.270;7.224;2023-02-24T13:17:05;8.20;99.90
21895;DHT22;11112;51.270;7.224;2023-02-24T13:19:44;8.10;99.90
21895;DHT22;11112;51.270;7.224;2023-02-24T13:22:24;8.10;99.90
21895;DHT22;11112;51.270;7.224;2023-02-24T13:25:09;8.20;99.90
21895;DHT22;11112;51.270;7.224;2023-02-24T13:27:54;8.10;99.90
21895;DHT22;11112;51.270;7.224;2023-02-24T13:30:31;8.20;99.90
21895;DHT22;11112;51.270;7.224;2023-02-24T13:33:19;8.20;99.90
21895;DHT22;11112;51.270;7.224;2023-02-24T13:35:52;8.10;99.90
21895;DHT22;11112;51.270;7.224;2023-02-24T13:38:34;8.10;99.90
21895;DHT22;11112;51.270;7.224;2023-02-24T13:41:08;8.20;99.90
21895;DHT22;11112;51.270;7.224;2023-02-24T13:43:53;8.20;99.90
21895;DHT22;11112;51.270;7.224;2023-02-24T13:46:26;8.20;99.90
21895;DHT22;11112;51.270;7.224;2023-02-24T13:49:02;8.10;99.90
21895;DHT22;11112;51.270;7.224;2023-02-24T13:51:55;8.10;99.90
21895;DHT22;11112;51.270;7.224;2023-02-24T13:54:45;8.10;99.90
21895;DHT22;11112;51.270;7.224;2023-02-24T14:00:30;8.20;99.90
21895;DHT22;11112;51.270;7.224;2023-02-24T14:03:11;8.10;99.90
21895;DHT22;11112;51.270;7.224;2023-02-24T14:05:45;8.10;99.90
21895;DHT22;11112;51.270;7.224;2023-02-24T14:08:19;8.10;99.90
21895;DHT22;11112;51.270;7.224;2023-02-24T14:10:52;8.10;99.90
21895;DHT22;11112;51.270;7.224;2023-02-24T14:13:23;8.10;99.90
21895;DHT22;11112;51.270;7.224;2023-02-24T14:15:55;8.10;99.90
21895;DHT22;11112;51.270;7.224;2023-02-24T14:18:24;8.00;99.90
21895;DHT22;11112;51.270;7.224;2023-02-24T14:20:55;8.00;99.90
21895;DHT22;11112;51.270;7.224;2023-02-24T14:23:26;8.00;99.90
21895;DHT22;11112;51.270;7.224;2023-02-24T14:25:56;8.10;99.90
21895;DHT22;11112;51.270;7.224;2023-02-24T14:28:29;8.10;99.90
21895;DHT22;11112;51.270;7.224;2023-02-24T14:31:05;8.00;99.90
21895;DHT22;11112;51.270;7.224;2023-02-24T14:33:35;8.10;99.90
21895;DHT22;11112;51.270;7.224;2023-02-24T14:36:06;8.10;99.90
21895;DHT22;11112;51.270;7.224;2023-02-24T14:38:43;8.10;99.90
21895;DHT22;11112;51.270;7.224;2023-02-24T14:41:19;8.10;99.90
21895;DHT22;11112;51.270;7.224;2023-02-24T14:43:47;8.10;99.90
21895;DHT22;11112;51.270;7.224;2023-02-24T14:46:14;8.10;99.90
21895;DHT22;11112;51.270;7.224;2023-02-24T14:48:42;8.10;99.90
21895;DHT22;11112;51.270;7.224;2023-02-24T14:51:14;8.10;99.90
21895;DHT22;11112;51.270;7.224;2023-02-24T14:53:51;8.10;99.90
21895;DHT22;11112;51.270;7.224;2023-02-24T14:56:22;8.10;99.90
21895;DHT22;11112;51.270;7.224;2023-02-24T14:59:00;8.10;99.90
21895;DHT22;11112;51.270;7.224;2023-02-24T15:01:32;8.00;99.90
21895;DHT22;11112;51.270;7.224;2023-02-24T15:04:09;8.00;99.90
21895;DHT22;11112;51.270;7.224;2023-02-24T15:06:40;8.10;99.90
21895;DHT22;11112;51.270;7.224;2023-02-24T15:09:13;8.10;99.90
21895;DHT22;11112;51.270;7.224;2023-02-24T15:11:43;8.10;99.90
21895;DHT22;11112;51.270;7.224;2023-02-24T15:14:18;8.10;99.90
21895;DHT22;11112;51.270;7.224;2023-02-24T15:16:49;8.10;99.90
21895;DHT22;11112;51.270;7.224;2023-02-24T15:19:26;8.10;99.90
21895;DHT22;11112;51.270;7.224;2023-02-24T15:22:03;8.10;99.90
21895;DHT22;11112;51.270;7.224;2023-02-24T15:24:45;8.10;99.90
21895;DHT22;11112;51.270;7.224;2023-02-24T15:27:30;8.10;99.90
21895;DHT22;11112;51.270;7.224;2023-02-24T15:29:59;8.10;99.90
21895;DHT22;11112;51.270;7.224;2023-02-24T15:32:31;8.10;99.90
21895;DHT22;11112;51.270;7.224;2023-02-24T15:35:00;8.20;99.90
21895;DHT22;11112;51.270;7.224;2023-02-24T15:37:35;8.10;99.90
21895;DHT22;11112;51.270;7.224;2023-02-24T15:40:17;8.10;99.90
21895;DHT22;11112;51.270;7.224;2023-02-24T15:42:50;8.10;99.90
21895;DHT22;11112;51.270;7.224;2023-02-24T15:45:24;8.10;99.90
21895;DHT22;11112;51.270;7.224;2023-02-24T15:47:56;8.10;99.90
21895;DHT22;11112;51.270;7.224;2023-02-24T15:50:26;8.20;99.90
21895;DHT22;11112;51.270;7.224;2023-02-24T15:52:56;8.20;99.90
21895;DHT22;11112;51.270;7.224;2023-02-24T15:55:27;8.20;99.90
21895;DHT22;11112;51.270;7.224;2023-02-24T15:57:57;8.20;99.90
21895;DHT22;11112;51.270;7.224;2023-02-24T16:00:26;8.20;99.90
21895;DHT22;11112;51.270;7.224;2023-02-24T16:02:53;8.20;99.90
21895;DHT22;11112;51.270;7.224;2023-02-24T16:05:21;8.20;99.90
21895;DHT22;11112;51.270;7.224;2023-02-24T16:07:48;8.20;99.90
21895;DHT22;11112;51.270;7.224;2023-02-24T16:10:18;8.20;99.90
21895;DHT22;11112;51.270;7.224;2023-02-24T16:12:50;8.20;99.90
21895;DHT22;11112;51.270;7.224;2023-02-24T16:15:23;8.20;99.90
21895;DHT22;11112;51.270;7.224;2023-02-24T16:17:52;8.20;99.90
21895;DHT22;11112;51.270;7.224;2023-02-24T16:20:21;8.20;99.90
21895;DHT22;11112;51.270;7.224;2023-02-24T16:22:56;8.30;99.90
21895;DHT22;11112;51.270;7.224;2023-02-24T16:25:24;8.30;99.90
21895;DHT22;11112;51.270;7.224;2023-02-24T16:27:53;8.20;99.90
21895;DHT22;11112;51.270;7.224;2023-02-24T16:30:25;8.20;99.90
21895;DHT22;11112;51.270;7.224;2023-02-24T16:32:55;8.30;99.90
21895;DHT22;11112;51.270;7.224;2023-02-24T16:35:23;8.20;99.90
21895;DHT22;11112;51.270;7.224;2023-02-24T16:37:51;8.20;99.90
21895;DHT22;11112;51.270;7.224;2023-02-24T16:40:22;8.20;99.90